Time;durP1;ratioP1;P1;durP2;ratioP2;P2;SDS_P1;SDS_P2;PMS_P1;PMS_P2;Temp;Humidity;BMP_temperature;BMP_pressure;BME280_temperature;BME280_humidity;BME280_pressure;Samples;Min_cycle;Max_cycle;Signal;HPM_P1;HPM_P2
2023/06/22 00:00:21;;;;;;;1999.90;999.90;;;22.30;99.90;;;;;;6725032;88;20196;-77
2023/06/22 00:10:21;;;;;;;1999.90;999.90;;;22.30;99.90;;;;;;6664241;88;20196;-77
2023/06/22 00:20:22;;;;;;;1999.90;999.90;;;22.30;99.90;;;;;;6662986;88;20199;-78
2023/06/22 00:30:23;;;;;;;1999.90;999.90;;;22.10;99.90;;;;;;6663259;88;20282;-77
2023/06/22 00:40:23;;;;;;;1999.90;999.90;;;22.30;99.90;;;;;;6684774;88;20231;-76
2023/06/22 00:50:27;;;;;;;1999.90;999.90;;;22.30;99.90;;;;;;6742536;87;20284;-76
2023/06/22 01:00:27;;;;;;;1999.90;999.90;;;22.20;99.90;;;;;;6705708;88;20221;-77
2023/06/22 01:10:58;;;;;;;1999.90;999.90;;;22.20;99.90;;;;;;6694526;88;20267;-77
2023/06/22 01:21:02;;;;;;;1999.90;999.90;;;22.20;99.90;;;;;;6740712;88;20293;-76
2023/06/22 01:31:05;;;;;;;;;;;22.20;99.90;;;;;;6737279;88;20665;-77
2023/06/22 01:41:06;;;;;;;1999.90;999.90;;;22.30;99.90;;;;;;6727859;88;20067;-77
2023/06/22 01:51:07;;;;;;;1999.90;999.90;;;22.30;99.90;;;;;;6743240;88;20226;-77
2023/06/22 02:01:11;;;;;;;1999.90;999.90;;;22.20;99.90;;;;;;6733873;88;20566;-76
2023/06/22 02:11:12;;;;;;;;;;;22.10;99.90;;;;;;6710765;88;20692;-77
2023/06/22 02:21:12;;;;;;;1999.90;999.90;;;22.00;99.90;;;;;;6737998;88;20808;-81
2023/06/22 02:31:13;;;;;;;1999.90;999.90;;;22.00;99.90;;;;;;6710391;88;20210;-76
2023/06/22 02:41:18;;;;;;;1999.90;999.90;;;21.90;99.90;;;;;;6727344;88;20206;-76
2023/06/22 02:51:18;;;;;;;1999.90;999.90;;;21.80;99.90;;;;;;6719171;88;20626;-77
2023/06/22 03:01:23;;;;;;;1999.90;999.90;;;21.60;99.90;;;;;;6742162;88;20188;-76
2023/06/22 03:11:24;;;;;;;1999.90;999.90;;;21.60;99.90;;;;;;6715129;88;20616;-76
2023/06/22 03:21:28;;;;;;;1999.90;999.90;;;21.60;99.90;;;;;;6676027;88;20241;-78
2023/06/22 03:31:29;;;;;;;1999.90;999.90;;;21.40;99.90;;;;;;6729439;88;20186;-76
2023/06/22 03:41:29;;;;;;;1999.90;999.90;;;21.70;99.90;;;;;;6746386;87;20271;-77
2023/06/22 04:02:32;;;;;;;1999.90;999.90;;;21.40;99.90;;;;;;6752270;88;20204;-77
2023/06/22 04:12:32;;;;;;;1999.90;999.90;;;21.30;99.90;;;;;;6748474;88;20241;-77
2023/06/22 04:22:33;;;;;;;1999.90;999.90;;;21.20;99.90;;;;;;6750320;88;20181;-78
2023/06/22 04:32:36;;;;;;;1999.90;999.90;;;21.20;99.90;;;;;;6748220;88;20502;-78
2023/06/22 04:42:38;;;;;;;1999.90;999.90;;;21.40;99.90;;;;;;6750116;88;20190;-78
2023/06/22 04:52:39;;;;;;;1999.90;999.90;;;21.40;99.90;;;;;;6755554;87;20218;-79
2023/06/22 05:02:40;;;;;;;1999.90;999.90;;;21.20;99.90;;;;;;6745423;88;20702;-78
2023/06/22 05:12:41;;;;;;;1999.90;999.90;;;21.20;99.90;;;;;;6749497;88;20296;-80
2023/06/22 05:22:43;;;;;;;1999.90;999.90;;;21.30;99.90;;;;;;6751212;88;20274;-78
2023/06/22 05:32:44;;;;;;;1999.90;999.90;;;21.40;99.90;;;;;;6749828;88;20172;-80
2023/06/22 05:42:44;;;;;;;1999.90;999.90;;;21.60;99.90;;;;;;6749926;88;20180;-79
2023/06/22 05:52:45;;;;;;;1999.90;999.90;;;22.10;99.90;;;;;;6744384;88;20238;-79
2023/06/22 06:02:45;;;;;;;1999.90;999.90;;;22.30;99.90;;;;;;6750087;88;20213;-80
2023/06/22 06:12:46;;;;;;;1999.90;999.90;;;22.70;99.90;;;;;;6756787;88;21034;-80
2023/06/22 06:22:47;;;;;;;1999.90;999.90;;;22.90;99.90;;;;;;6753266;88;20715;-81
2023/06/22 06:32:48;;;;;;;1999.90;999.90;;;23.40;99.90;;;;;;6757946;88;20690;-80
2023/06/22 06:42:48;;;;;;;1999.90;999.90;;;23.80;99.90;;;;;;6756197;88;20205;-80
2023/06/22 06:52:50;;;;;;;1999.90;999.90;;;23.80;99.90;;;;;;6756070;87;20223;-80
2023/06/22 07:02:51;;;;;;;1999.90;999.90;;;23.90;99.90;;;;;;6751435;88;20214;-79
2023/06/22 07:12:51;;;;;;;1999.90;999.90;;;24.00;99.90;;;;;;6753428;88;20192;-82
2023/06/22 07:22:52;;;;;;;1999.90;999.90;;;24.40;99.90;;;;;;6751616;88;20300;-78
2023/06/22 07:32:53;;;;;;;1999.90;999.90;;;24.80;99.90;;;;;;6753057;88;20203;-79
2023/06/22 07:42:54;;;;;;;1999.90;999.90;;;25.00;99.90;;;;;;6752082;88;20201;-79
2023/06/22 07:52:55;;;;;;;1999.90;999.90;;;25.70;99.90;;;;;;6745583;88;20263;-79
2023/06/22 08:02:56;;;;;;;1999.90;999.90;;;26.40;99.90;;;;;;6753576;88;20731;-78
2023/06/22 08:12:56;;;;;;;1999.90;999.90;;;26.90;99.90;;;;;;6750138;88;20199;-78
2023/06/22 08:23:00;;;;;;;1999.90;999.90;;;27.70;99.90;;;;;;6756171;88;20206;-78
2023/06/22 08:33:00;;;;;;;1999.90;999.90;;;28.70;99.90;;;;;;6750437;88;20644;-78
2023/06/22 08:43:01;;;;;;;1999.90;999.90;;;29.50;99.90;;;;;;6752308;88;20241;-78
2023/06/22 08:53:01;;;;;;;1999.90;999.90;;;30.10;99.90;;;;;;6751976;88;20277;-78
2023/06/22 09:03:02;;;;;;;1999.90;999.90;;;30.40;99.90;;;;;;6750948;88;20604;-79
2023/06/22 09:13:02;;;;;;;1999.90;999.90;;;29.60;99.90;;;;;;6753110;88;20332;-78
2023/06/22 09:23:03;;;;;;;1999.90;999.90;;;28.90;99.90;;;;;;6756518;88;20279;-78
2023/06/22 09:33:03;;;;;;;1999.90;999.90;;;29.50;99.90;;;;;;6749308;88;20197;-78
2023/06/22 09:43:04;;;;;;;1999.90;999.90;;;29.50;99.90;;;;;;6748527;88;20210;-78
2023/06/22 09:53:04;;;;;;;1999.90;999.90;;;30.00;99.90;;;;;;6752445;88;20209;-80
2023/06/22 10:03:05;;;;;;;1999.90;999.90;;;28.80;99.90;;;;;;6751615;88;20201;-80
2023/06/22 10:13:10;;;;;;;1999.90;999.90;;;28.10;99.90;;;;;;6747347;88;20216;-80
2023/06/22 10:23:11;;;;;;;1999.90;999.90;;;28.00;99.90;;;;;;6753057;88;20971;-80
2023/06/22 10:33:12;;;;;;;1999.90;999.90;;;27.70;99.90;;;;;;6751670;88;20196;-80
2023/06/22 10:43:12;;;;;;;1999.90;999.90;;;27.20;99.90;;;;;;6758412;88;20257;-81
2023/06/22 10:53:13;;;;;;;1999.90;999.90;;;26.20;99.90;;;;;;6768604;88;20285;-80
2023/06/22 11:03:14;;;;;;;1999.90;999.90;;;24.20;99.90;;;;;;6754043;88;20694;-79
2023/06/22 11:13:14;;;;;;;1999.90;999.90;;;22.80;99.90;;;;;;6751417;88;20253;-79
2023/06/22 11:23:15;;;;;;;1999.90;999.90;;;22.60;99.90;;;;;;6749313;88;20762;-79
2023/06/22 11:33:15;;;;;;;1999.90;999.90;;;22.60;99.90;;;;;;6753517;88;20186;-80
2023/06/22 11:43:16;;;;;;;1999.90;999.90;;;23.00;99.90;;;;;;6758937;88;20192;-79
2023/06/22 11:53:17;;;;;;;1999.90;999.90;;;24.20;99.90;;;;;;6757051;88;20263;-80
2023/06/22 12:03:18;;;;;;;1999.90;999.90;;;24.90;99.90;;;;;;6748149;88;20176;-79
2023/06/22 12:13:19;;;;;;;1999.90;999.90;;;24.70;99.90;;;;;;6746200;88;20688;-78
2023/06/22 12:23:19;;;;;;;1999.90;999.90;;;24.40;99.90;;;;;;6745907;88;20305;-76
2023/06/22 12:33:20;;;;;;;1999.90;999.90;;;24.20;99.90;;;;;;6744091;88;20335;-77
2023/06/22 12:43:20;;;;;;;1999.90;999.90;;;24.80;99.90;;;;;;6747100;88;20256;-77
2023/06/22 12:53:23;;;;;;;1999.90;999.90;;;26.70;99.90;;;;;;6744210;88;20180;-76
2023/06/22 13:03:25;;;;;;;1999.90;999.90;;;27.50;99.90;;;;;;6744690;88;20181;-76
2023/06/22 13:13:29;;;;;;;1999.90;999.90;;;28.00;99.90;;;;;;6746843;88;20665;-78
2023/06/22 13:23:30;;;;;;;1999.90;999.90;;;28.60;99.90;;;;;;6754973;88;20991;-78
2023/06/22 13:33:30;;;;;;;1999.90;999.90;;;29.30;99.90;;;;;;6740800;88;20222;-77
2023/06/22 13:43:31;;;;;;;1999.90;999.90;;;29.60;99.90;;;;;;6741734;88;20197;-74
2023/06/22 13:53:32;;;;;;;1999.90;999.90;;;30.40;99.90;;;;;;6742634;88;20280;-75
2023/06/22 14:03:32;;;;;;;1999.90;999.90;;;30.20;99.90;;;;;;6748616;88;20219;-79
2023/06/22 14:13:33;;;;;;;1999.90;999.90;;;29.70;99.90;;;;;;6749767;88;20193;-78
2023/06/22 14:23:39;;;;;;;1999.90;999.90;;;28.80;99.90;;;;;;6747688;88;20370;-79
2023/06/22 14:33:49;;;;;;;1999.90;999.90;;;27.80;99.90;;;;;;6751298;88;20229;-78
2023/06/22 14:43:50;;;;;;;1999.90;999.90;;;26.90;99.90;;;;;;6742540;88;20197;-77
2023/06/22 14:53:51;;;;;;;1999.90;999.90;;;24.20;99.90;;;;;;6743226;88;20214;-80
2023/06/22 15:03:51;;;;;;;1999.90;999.90;;;23.10;99.90;;;;;;6756468;87;20252;-80
2023/06/22 15:13:52;;;;;;;1999.90;999.90;;;22.60;99.90;;;;;;6776008;88;20218;-84
2023/06/22 15:33:56;;;;;;;1999.90;999.90;;;22.20;99.90;;;;;;6734221;88;20315;-79
2023/06/22 15:43:56;;;;;;;1999.90;999.90;;;22.10;99.90;;;;;;6727160;88;20225;-79
2023/06/22 15:53:57;;;;;;;1999.90;999.90;;;22.00;99.90;;;;;;6740156;77;20214;-79
2023/06/22 16:03:57;;;;;;;1999.90;999.90;;;22.10;99.90;;;;;;6726140;88;20232;-78
2023/06/22 16:13:58;;;;;;;1999.90;999.90;;;22.00;99.90;;;;;;6718640;88;20371;-78
2023/06/22 16:23:58;;;;;;;1999.90;999.90;;;21.90;99.90;;;;;;6716817;88;20205;-78
2023/06/22 16:33:59;;;;;;;1999.90;999.90;;;21.70;99.90;;;;;;6719305;88;20649;-78
2023/06/22 16:44:04;;;;;;;1999.90;999.90;;;21.50;99.90;;;;;;6719732;88;20197;-78
2023/06/22 16:54:06;;;;;;;1999.90;999.90;;;21.60;99.90;;;;;;6717421;88;20648;-77
2023/06/22 17:04:08;;;;;;;1999.90;999.90;;;21.80;99.90;;;;;;6715290;88;20352;-78
2023/06/22 17:14:09;;;;;;;1999.90;999.90;;;22.10;99.90;;;;;;6711644;88;20222;-77
2023/06/22 17:24:13;;;;;;;1999.90;999.90;;;22.30;99.90;;;;;;6708070;88;20173;-77
2023/06/22 17:34:18;;;;;;;1999.90;999.90;;;22.30;99.90;;;;;;6711986;88;20251;-77
2023/06/22 17:44:24;;;;;;;1999.90;999.90;;;22.40;99.90;;;;;;6712064;88;20600;-78
2023/06/22 17:54:29;;;;;;;1999.90;999.90;;;22.60;99.90;;;;;;6708565;88;20462;-77
2023/06/22 18:04:32;;;;;;;1999.90;999.90;;;22.40;99.90;;;;;;6711586;88;20255;-77
2023/06/22 18:14:33;;;;;;;1999.90;999.90;;;22.40;99.90;;;;;;6719356;88;20177;-78
2023/06/22 18:24:35;;;;;;;1999.90;999.90;;;22.50;99.90;;;;;;6714712;88;20221;-77
2023/06/22 18:34:35;;;;;;;1999.90;999.90;;;22.70;99.90;;;;;;6714305;88;20193;-78
2023/06/22 18:44:41;;;;;;;1999.90;999.90;;;22.50;99.90;;;;;;6710309;88;20230;-77
2023/06/22 18:54:48;;;;;;;1999.90;999.90;;;22.50;99.90;;;;;;6719956;88;20177;-78
2023/06/22 19:04:48;;;;;;;1999.90;999.90;;;22.40;99.90;;;;;;6722253;88;20701;-78
2023/06/22 19:15:11;;;;;;;1999.90;999.90;;;22.00;99.90;;;;;;6730924;88;20212;-79
2023/06/22 19:25:44;;;;;;;1999.90;999.90;;;21.40;99.90;;;;;;6721302;88;20182;-79
2023/06/22 19:35:46;;;;;;;1999.90;999.90;;;20.60;99.90;;;;;;6719195;88;20648;-80
2023/06/22 19:45:47;;;;;;;1999.90;999.90;;;20.00;99.90;;;;;;6725162;88;20266;-77
2023/06/22 19:55:49;;;;;;;1999.90;999.90;;;19.70;99.90;;;;;;6720145;88;20332;-77
2023/06/22 20:05:49;;;;;;;1999.90;999.90;;;19.50;99.90;;;;;;6726054;88;20214;-77
2023/06/22 20:15:51;;;;;;;1999.90;999.90;;;19.30;99.90;;;;;;6721281;88;20204;-79
2023/06/22 20:25:53;;;;;;;1999.90;999.90;;;19.10;99.90;;;;;;6721036;88;20186;-80
2023/06/22 20:35:54;;;;;;;1999.90;999.90;;;18.70;99.90;;;;;;6720733;88;20181;-78
2023/06/22 20:45:54;;;;;;;1999.90;999.90;;;18.40;99.90;;;;;;6723701;88;20218;-80
2023/06/22 20:55:55;;;;;;;1999.90;999.90;;;18.10;99.90;;;;;;6723545;88;20185;-78
2023/06/22 21:05:57;;;;;;;1999.90;999.90;;;18.00;99.90;;;;;;6721949;88;20215;-78
2023/06/22 21:15:57;;;;;;;1999.90;999.90;;;18.10;99.90;;;;;;6723907;88;20305;-79
2023/06/22 21:25:58;;;;;;;1999.90;999.90;;;18.20;99.90;;;;;;6724960;88;20234;-78
2023/06/22 21:35:58;;;;;;;1999.90;999.90;;;18.30;99.90;;;;;;6724272;88;20215;-79
2023/06/22 21:45:58;;;;;;;1999.90;999.90;;;18.40;99.90;;;;;;6723391;88;20544;-78
2023/06/22 21:56:20;;;;;;;1999.90;999.90;;;18.40;99.90;;;;;;6719881;88;20268;-79
2023/06/22 22:06:20;;;;;;;1999.90;999.90;;;18.30;99.90;;;;;;6727985;88;20234;-79
2023/06/22 22:16:21;;;;;;;1999.90;999.90;;;18.20;99.90;;;;;;6738519;88;20210;-78
2023/06/22 22:26:21;;;;;;;1999.90;999.90;;;18.20;99.90;;;;;;6730700;88;20198;-78
2023/06/22 22:36:22;;;;;;;1999.90;999.90;;;18.30;99.90;;;;;;6725973;88;20523;-79
2023/06/22 22:46:22;;;;;;;1999.90;999.90;;;18.30;99.90;;;;;;6729126;88;20206;-80
2023/06/22 22:56:24;;;;;;;1999.90;999.90;;;18.40;99.90;;;;;;6728825;88;20231;-80
2023/06/22 23:06:24;;;;;;;1999.90;999.90;;;18.40;99.90;;;;;;6735464;88;20268;-80
2023/06/22 23:16:28;;;;;;;1999.90;999.90;;;18.40;99.90;;;;;;6753539;88;20189;-79
2023/06/22 23:26:29;;;;;;;1999.90;999.90;;;18.40;99.90;;;;;;6729440;88;20241;-81
2023/06/22 23:36:29;;;;;;;1999.90;999.90;;;18.60;99.90;;;;;;6727738;88;20181;-81
2023/06/22 23:46:30;;;;;;;1999.90;999.90;;;18.50;99.90;;;;;;6728421;88;20196;-80
2023/06/22 23:56:31;;;;;;;1999.90;999.90;;;18.50;99.90;;;;;;6726153;88;20506;-81
